Success, Missouri
Current Conditions -  °F | °C
As of 10:58 AM on Sunday 21 Dec 2014 (Local Time) from KTBN Reporting Station
Haze Haze  
Wind Chill: 33°   Ceiling: 900
Heat Index: 39°   Visibility: 4mi
Dew Point: 39°   Wind: 10mph
Humidity: 98%   Direction: 140°SE
Pressure: 30.09"   Gusts: NA
Location:  37.44°N, 92.09°W
Report Text: KTBN 211658Z AUTO 14009KT 4SM BR OVC009 04/04 A3009 RMK AO2 SLP198 T00410038 $
Loading
Personal Weather Stations






























Interactive Weather Map New forecast layout! Learn more

10-Day Weather Forecast

Advertisements
Track Severe Weather on mobile